Time;durP1;ratioP1;P1;durP2;ratioP2;P2;SDS_P1;SDS_P2;PMS_P1;PMS_P2;Temp;Humidity;BMP_temperature;BMP_pressure;BME280_temperature;BME280_humidity;BME280_pressure;Samples;Min_cycle;Max_cycle;Signal;HPM_P1;HPM_P2
2022/04/12 00:00:24;;;;;;;8.30;6.07;;;;;;;;;;5020721;28;20136;-77
2022/04/12 00:02:49;;;;;;;7.25;6.07;;;;;;;;;;5020739;28;20136;-77
2022/04/12 00:05:15;;;;;;;7.85;6.07;;;;;;;;;;5009920;28;20129;-77
2022/04/12 00:07:43;;;;;;;8.88;6.18;;;;;;;;;;5013221;28;20042;-77
2022/04/12 00:10:09;;;;;;;7.75;6.80;;;;;;;;;;5014093;28;20068;-77
2022/04/12 00:12:37;;;;;;;9.30;6.70;;;;;;;;;;5009421;28;20041;-78
2022/04/12 00:15:03;;;;;;;8.02;6.65;;;;;;;;;;5005599;28;20085;-77
2022/04/12 00:20:15;;;;;;;8.25;6.30;;;;;;;;;;5047526;28;20049;-77
2022/04/12 00:22:41;;;;;;;8.30;6.78;;;;;;;;;;5010269;28;20157;-77
2022/04/12 00:25:09;;;;;;;8.13;6.97;;;;;;;;;;5020305;28;20466;-77
2022/04/12 00:27:38;;;;;;;8.20;7.20;;;;;;;;;;5012585;28;20120;-77
2022/04/12 00:30:07;;;;;;;8.43;6.93;;;;;;;;;;5022820;28;20409;-77
2022/04/12 00:32:34;;;;;;;8.93;6.97;;;;;;;;;;5010440;28;20137;-77
2022/04/12 00:35:00;;;;;;;8.27;6.75;;;;;;;;;;5027461;28;20041;-76
2022/04/12 00:37:30;;;;;;;9.68;7.00;;;;;;;;;;5009526;28;20042;-77
2022/04/12 00:39:56;;;;;;;8.68;6.97;;;;;;;;;;5012368;28;20425;-78
2022/04/12 00:42:22;;;;;;;9.88;7.43;;;;;;;;;;5017449;28;20057;-77
2022/04/12 00:44:48;;;;;;;8.98;7.13;;;;;;;;;;5017945;28;20228;-77
2022/04/12 00:47:14;;;;;;;8.77;7.35;;;;;;;;;;5031957;28;20042;-77
2022/04/12 00:49:41;;;;;;;8.70;7.22;;;;;;;;;;5026408;28;20464;-77
2022/04/12 00:52:08;;;;;;;8.98;6.97;;;;;;;;;;5004075;28;20049;-77
2022/04/12 00:54:34;;;;;;;8.85;7.45;;;;;;;;;;5008465;28;20042;-78
2022/04/12 00:57:00;;;;;;;9.32;7.97;;;;;;;;;;5042367;28;20059;-77
2022/04/12 00:59:26;;;;;;;8.85;7.95;;;;;;;;;;5011180;28;20058;-77
2022/04/12 01:01:53;;;;;;;9.93;8.18;;;;;;;;;;5042946;28;20054;-78
2022/04/12 01:04:19;;;;;;;10.52;8.32;;;;;;;;;;5018013;28;20041;-77
2022/04/12 01:06:46;;;;;;;10.10;8.50;;;;;;;;;;5003249;28;20042;-77
2022/04/12 01:09:12;;;;;;;8.95;8.05;;;;;;;;;;5020292;28;20389;-77
2022/04/12 01:11:39;;;;;;;10.30;7.75;;;;;;;;;;5021013;28;20413;-77
2022/04/12 01:14:07;;;;;;;9.77;8.32;;;;;;;;;;5006403;28;20077;-77
2022/04/12 01:16:33;;;;;;;10.48;8.90;;;;;;;;;;5015578;28;20383;-77
2022/04/12 01:18:59;;;;;;;11.90;8.93;;;;;;;;;;5018696;28;20045;-77
2022/04/12 01:21:27;;;;;;;10.90;8.82;;;;;;;;;;4999685;28;20038;-77
2022/04/12 01:24:03;;;;;;;10.30;8.48;;;;;;;;;;5011465;28;20516;-77
2022/04/12 01:26:29;;;;;;;10.40;8.50;;;;;;;;;;5021485;28;20095;-77
2022/04/12 01:28:55;;;;;;;9.70;8.40;;;;;;;;;;5019294;28;20049;-77
2022/04/12 01:31:21;;;;;;;10.43;8.68;;;;;;;;;;5010162;28;20371;-77
2022/04/12 01:33:47;;;;;;;10.30;9.02;;;;;;;;;;5036652;28;20057;-77
2022/04/12 01:36:13;;;;;;;12.00;9.73;;;;;;;;;;5011334;28;20120;-77
2022/04/12 01:38:42;;;;;;;12.10;9.70;;;;;;;;;;5013099;28;20196;-77
2022/04/12 01:41:08;;;;;;;11.45;9.02;;;;;;;;;;5018769;28;20065;-76
2022/04/12 01:43:34;;;;;;;10.40;9.32;;;;;;;;;;5025470;28;20507;-77
2022/04/12 01:46:00;;;;;;;11.25;9.05;;;;;;;;;;5042145;28;20053;-77
2022/04/12 01:48:26;;;;;;;14.15;10.05;;;;;;;;;;5034219;28;20133;-77
2022/04/12 01:50:52;;;;;;;12.02;9.80;;;;;;;;;;5049479;28;20054;-77
2022/04/12 01:53:18;;;;;;;11.25;9.55;;;;;;;;;;5009239;28;20474;-77
2022/04/12 01:55:44;;;;;;;12.23;9.82;;;;;;;;;;5026127;28;20085;-77
2022/04/12 01:58:10;;;;;;;12.07;10.10;;;;;;;;;;5022164;28;20489;-77
2022/04/12 02:00:36;;;;;;;11.23;9.65;;;;;;;;;;5044229;28;20045;-78
2022/04/12 02:03:03;;;;;;;11.50;9.68;;;;;;;;;;5013953;28;20053;-77
2022/04/12 02:05:29;;;;;;;14.55;10.07;;;;;;;;;;5012706;28;20046;-76
2022/04/12 02:07:55;;;;;;;10.75;9.65;;;;;;;;;;5014317;28;20041;-77
2022/04/12 02:10:22;;;;;;;11.05;9.85;;;;;;;;;;5028169;28;20053;-77
2022/04/12 02:12:49;;;;;;;12.60;9.57;;;;;;;;;;5016767;28;20046;-77
2022/04/12 02:15:15;;;;;;;12.85;9.68;;;;;;;;;;5015628;28;20065;-77
2022/04/12 02:17:41;;;;;;;11.55;8.98;;;;;;;;;;5023166;28;20046;-77
2022/04/12 02:20:07;;;;;;;13.55;10.00;;;;;;;;;;4998481;28;20129;-77
2022/04/12 02:22:34;;;;;;;13.38;9.98;;;;;;;;;;5045741;28;20042;-77
2022/04/12 02:25:00;;;;;;;10.40;9.30;;;;;;;;;;5024816;28;20038;-77
2022/04/12 02:27:26;;;;;;;12.20;11.00;;;;;;;;;;5012681;28;20048;-77
2022/04/12 02:29:55;;;;;;;11.65;9.93;;;;;;;;;;5014096;28;20059;-77
2022/04/12 02:32:20;;;;;;;11.88;10.68;;;;;;;;;;5013672;28;20140;-77
2022/04/12 02:34:47;;;;;;;12.25;10.38;;;;;;;;;;5016586;28;20129;-77
2022/04/12 02:37:13;;;;;;;11.73;10.45;;;;;;;;;;5022202;28;20053;-77
2022/04/12 02:39:39;;;;;;;11.60;10.27;;;;;;;;;;5034864;28;20042;-77
2022/04/12 02:42:06;;;;;;;12.90;10.65;;;;;;;;;;5025695;28;20054;-77
2022/04/12 02:44:31;;;;;;;11.00;9.88;;;;;;;;;;5018283;28;20117;-77
2022/04/12 02:46:57;;;;;;;11.80;10.55;;;;;;;;;;5010299;28;20140;-78
2022/04/12 02:49:23;;;;;;;11.63;10.48;;;;;;;;;;5051961;28;20046;-77
2022/04/12 02:51:51;;;;;;;10.93;9.75;;;;;;;;;;5020009;28;20049;-77
2022/04/12 02:54:17;;;;;;;12.73;10.80;;;;;;;;;;5012148;28;20053;-77
2022/04/12 02:56:43;;;;;;;12.25;10.95;;;;;;;;;;5009706;28;20133;-77
2022/04/12 02:59:09;;;;;;;12.23;10.32;;;;;;;;;;5038194;28;20042;-77
2022/04/12 03:01:35;;;;;;;12.20;10.32;;;;;;;;;;5001958;28;20129;-78
2022/04/12 03:04:02;;;;;;;11.98;10.75;;;;;;;;;;5040754;28;20379;-77
2022/04/12 03:06:28;;;;;;;13.02;10.15;;;;;;;;;;5009213;28;20093;-76
2022/04/12 03:08:54;;;;;;;11.77;10.30;;;;;;;;;;5010750;28;20370;-77
2022/04/12 03:11:19;;;;;;;14.82;10.98;;;;;;;;;;5014332;28;20148;-77
2022/04/12 03:13:46;;;;;;;11.40;10.25;;;;;;;;;;5021483;28;20048;-77
2022/04/12 03:16:12;;;;;;;12.50;10.95;;;;;;;;;;5021068;28;20061;-77
2022/04/12 03:18:38;;;;;;;12.52;10.27;;;;;;;;;;5013597;28;20482;-77
2022/04/12 03:21:07;;;;;;;12.60;10.68;;;;;;;;;;5033499;28;20088;-77
2022/04/12 03:23:33;;;;;;;12.52;11.10;;;;;;;;;;5005139;28;20050;-77
2022/04/12 03:25:59;;;;;;;12.60;10.15;;;;;;;;;;5010176;28;20457;-77
2022/04/12 03:28:25;;;;;;;11.93;10.32;;;;;;;;;;5032884;28;20042;-77
2022/04/12 03:30:51;;;;;;;11.82;10.15;;;;;;;;;;5016048;28;20046;-77
2022/04/12 03:33:17;;;;;;;13.02;10.73;;;;;;;;;;5032046;28;20064;-77
2022/04/12 03:35:43;;;;;;;12.48;10.75;;;;;;;;;;5048053;28;20046;-77
2022/04/12 03:38:09;;;;;;;12.65;10.73;;;;;;;;;;5018077;28;20560;-77
2022/04/12 03:40:35;;;;;;;12.05;10.75;;;;;;;;;;5018849;28;20054;-77
2022/04/12 03:43:03;;;;;;;12.75;10.48;;;;;;;;;;5025017;28;20045;-77
2022/04/12 03:45:29;;;;;;;13.55;9.95;;;;;;;;;;5010759;28;20046;-77
2022/04/12 03:47:55;;;;;;;11.77;10.57;;;;;;;;;;5016032;28;20132;-77
2022/04/12 03:50:22;;;;;;;13.05;10.55;;;;;;;;;;5011040;28;20045;-77
2022/04/12 03:52:48;;;;;;;12.68;10.88;;;;;;;;;;5008371;28;20996;-77
2022/04/12 03:55:14;;;;;;;11.70;10.50;;;;;;;;;;5009377;28;20384;-77
2022/04/12 03:57:40;;;;;;;12.65;10.85;;;;;;;;;;5038494;28;20152;-77
2022/04/12 04:00:08;;;;;;;12.82;11.13;;;;;;;;;;5042860;28;20061;-77
2022/04/12 04:02:34;;;;;;;14.15;11.25;;;;;;;;;;5020264;28;20504;-78
2022/04/12 04:05:00;;;;;;;12.70;10.70;;;;;;;;;;5024527;28;20056;-77
2022/04/12 04:07:27;;;;;;;11.68;10.48;;;;;;;;;;5018819;28;20053;-77
2022/04/12 04:09:54;;;;;;;13.38;10.57;;;;;;;;;;5008937;28;20050;-77
2022/04/12 04:12:20;;;;;;;12.32;10.00;;;;;;;;;;5022792;28;20047;-77
2022/04/12 04:14:47;;;;;;;12.15;10.85;;;;;;;;;;5016987;28;20044;-75
2022/04/12 04:17:13;;;;;;;12.48;10.48;;;;;;;;;;5013730;28;20085;-77
2022/04/12 04:19:42;;;;;;;11.18;9.73;;;;;;;;;;5016107;28;20092;-77
2022/04/12 04:22:08;;;;;;;11.45;10.25;;;;;;;;;;5019949;28;20076;-77
2022/04/12 04:24:34;;;;;;;11.65;10.38;;;;;;;;;;5013157;28;20080;-77
2022/04/12 04:27:00;;;;;;;13.25;10.65;;;;;;;;;;5015710;28;20453;-77
2022/04/12 04:29:33;;;;;;;12.05;9.80;;;;;;;;;;5010121;28;20111;-77
2022/04/12 04:31:59;;;;;;;11.50;10.27;;;;;;;;;;5014267;28;20129;-77
2022/04/12 04:34:25;;;;;;;11.63;10.43;;;;;;;;;;5012023;28;20100;-77
2022/04/12 04:36:51;;;;;;;11.70;9.60;;;;;;;;;;5019269;28;20049;-77
2022/04/12 04:39:20;;;;;;;11.10;8.70;;;;;;;;;;5012016;28;20132;-77
2022/04/12 04:41:46;;;;;;;12.38;10.20;;;;;;;;;;4992055;28;20494;-77
2022/04/12 04:44:13;;;;;;;11.80;10.57;;;;;;;;;;5008734;28;20084;-77
2022/04/12 04:46:39;;;;;;;12.35;10.13;;;;;;;;;;5016641;28;20056;-77
2022/04/12 04:49:05;;;;;;;12.40;11.07;;;;;;;;;;5046987;28;20478;-77
2022/04/12 04:51:31;;;;;;;14.80;11.48;;;;;;;;;;5022901;28;20183;-76
2022/04/12 04:53:59;;;;;;;12.45;10.88;;;;;;;;;;5048082;28;20427;-77
2022/04/12 04:56:26;;;;;;;11.63;9.98;;;;;;;;;;5013963;28;20046;-76
2022/04/12 04:58:52;;;;;;;12.70;11.23;;;;;;;;;;5015063;28;20049;-77
2022/04/12 05:01:20;;;;;;;12.43;10.70;;;;;;;;;;5048083;28;20053;-77
2022/04/12 05:03:46;;;;;;;12.57;10.85;;;;;;;;;;5020486;28;20056;-77
2022/04/12 05:06:12;;;;;;;11.88;10.15;;;;;;;;;;5017405;28;20049;-77
2022/04/12 05:08:38;;;;;;;12.00;10.60;;;;;;;;;;5008118;28;20125;-77
2022/04/12 05:11:04;;;;;;;12.20;10.80;;;;;;;;;;5015016;28;20675;-77
2022/04/12 05:13:30;;;;;;;12.00;10.77;;;;;;;;;;5037104;28;20132;-76
2022/04/12 05:15:56;;;;;;;13.35;11.48;;;;;;;;;;5013797;28;20049;-77
2022/04/12 05:18:22;;;;;;;12.88;10.95;;;;;;;;;;5024271;28;20045;-77
2022/04/12 05:20:49;;;;;;;10.93;9.82;;;;;;;;;;5014090;28;20034;-77
2022/04/12 05:23:16;;;;;;;12.30;10.68;;;;;;;;;;5001471;28;20582;-77
2022/04/12 05:25:42;;;;;;;11.95;10.65;;;;;;;;;;5017234;28;20462;-76
2022/04/12 05:28:08;;;;;;;11.75;10.35;;;;;;;;;;5018187;28;20050;-76
2022/04/12 05:30:34;;;;;;;12.57;11.27;;;;;;;;;;5024178;28;20129;-77
2022/04/12 05:33:00;;;;;;;11.73;9.98;;;;;;;;;;5017351;28;20066;-76
2022/04/12 05:35:26;;;;;;;13.50;10.98;;;;;;;;;;5051242;28;20088;-76
2022/04/12 05:37:53;;;;;;;12.80;10.50;;;;;;;;;;5055200;28;20498;-76
2022/04/12 05:40:20;;;;;;;12.98;10.23;;;;;;;;;;5018381;28;20434;-76
2022/04/12 05:42:46;;;;;;;12.18;9.77;;;;;;;;;;5039264;28;20045;-77
2022/04/12 05:45:13;;;;;;;12.18;10.77;;;;;;;;;;5046316;28;20089;-76
2022/04/12 05:47:57;;;;;;;11.90;10.70;;;;;;;;;;5053642;28;20490;-76
2022/04/12 05:50:27;;;;;;;11.63;10.40;;;;;;;;;;5014519;28;20108;-76
2022/04/12 05:52:54;;;;;;;12.05;10.10;;;;;;;;;;5051381;28;20052;-77
2022/04/12 05:55:22;;;;;;;12.40;10.35;;;;;;;;;;5023461;28;20052;-77
2022/04/12 05:57:56;;;;;;;12.02;10.25;;;;;;;;;;5039434;28;20041;-77
2022/04/12 06:00:26;;;;;;;10.80;9.70;;;;;;;;;;5011362;28;20505;-76
2022/04/12 06:02:53;;;;;;;12.40;9.65;;;;;;;;;;5018733;28;20077;-77
2022/04/12 06:05:19;;;;;;;12.15;9.50;;;;;;;;;;5026342;28;20038;-76
2022/04/12 06:07:46;;;;;;;11.38;9.90;;;;;;;;;;5057315;28;20050;-76
2022/04/12 06:10:13;;;;;;;12.25;10.15;;;;;;;;;;5019798;28;20548;-76
2022/04/12 06:12:39;;;;;;;12.10;10.52;;;;;;;;;;5025377;28;20050;-76
2022/04/12 06:15:05;;;;;;;12.05;10.40;;;;;;;;;;5041074;28;20038;-76
2022/04/12 06:17:32;;;;;;;11.85;10.05;;;;;;;;;;5034317;28;20046;-76
2022/04/12 06:20:02;;;;;;;10.82;9.32;;;;;;;;;;5041309;28;20185;-76
2022/04/12 06:22:31;;;;;;;11.40;10.13;;;;;;;;;;5011172;28;20065;-76
2022/04/12 06:24:57;;;;;;;11.73;10.05;;;;;;;;;;5015216;28;20124;-77
2022/04/12 06:27:33;;;;;;;11.57;10.35;;;;;;;;;;5022345;28;20042;-77
2022/04/12 06:30:03;;;;;;;11.50;10.30;;;;;;;;;;5004628;28;20146;-77
2022/04/12 06:32:30;;;;;;;12.23;9.73;;;;;;;;;;5049924;28;20395;-76
2022/04/12 06:34:56;;;;;;;10.88;9.77;;;;;;;;;;5006084;28;20049;-77
2022/04/12 06:37:26;;;;;;;11.95;10.35;;;;;;;;;;5008763;28;20043;-76
2022/04/12 06:39:52;;;;;;;10.77;9.55;;;;;;;;;;5041476;28;20038;-77
2022/04/12 06:42:18;;;;;;;11.85;9.77;;;;;;;;;;5013656;28;20049;-77
2022/04/12 06:44:44;;;;;;;11.15;10.00;;;;;;;;;;5012443;28;20038;-76
2022/04/12 06:47:10;;;;;;;11.73;10.00;;;;;;;;;;5047379;28;20124;-77
2022/04/12 06:49:36;;;;;;;10.63;9.45;;;;;;;;;;5019578;28;20045;-78
2022/04/12 06:52:03;;;;;;;11.27;10.07;;;;;;;;;;5013866;28;21557;-77
2022/04/12 06:54:29;;;;;;;12.32;10.05;;;;;;;;;;5008925;28;20125;-78
2022/04/12 06:56:55;;;;;;;11.38;9.93;;;;;;;;;;5020297;28;20125;-78
2022/04/12 06:59:22;;;;;;;13.15;10.23;;;;;;;;;;5029710;28;20485;-78
2022/04/12 07:01:51;;;;;;;11.75;9.93;;;;;;;;;;5027659;28;20100;-80
2022/04/12 07:04:17;;;;;;;12.93;10.25;;;;;;;;;;5037499;28;20061;-79
2022/04/12 07:06:43;;;;;;;11.32;10.00;;;;;;;;;;5016123;28;20570;-78
2022/04/12 07:09:15;;;;;;;11.43;10.10;;;;;;;;;;5013955;28;20097;-78
2022/04/12 07:11:41;;;;;;;12.02;10.43;;;;;;;;;;4993373;28;20533;-78
2022/04/12 07:14:10;;;;;;;11.38;10.18;;;;;;;;;;5057448;28;20073;-79
2022/04/12 07:16:38;;;;;;;11.20;9.80;;;;;;;;;;5027111;28;20128;-80
2022/04/12 07:19:04;;;;;;;11.20;9.73;;;;;;;;;;5026045;28;20045;-79
2022/04/12 07:21:31;;;;;;;11.70;10.05;;;;;;;;;;5008002;28;20045;-78
2022/04/12 07:23:59;;;;;;;10.52;9.38;;;;;;;;;;5003631;28;20049;-80
2022/04/12 07:26:25;;;;;;;12.20;10.25;;;;;;;;;;5029890;28;20140;-81
2022/04/12 07:28:51;;;;;;;11.98;9.70;;;;;;;;;;5019982;28;20113;-78
2022/04/12 07:31:17;;;;;;;11.00;9.63;;;;;;;;;;5028061;28;20069;-79
2022/04/12 07:33:43;;;;;;;10.77;8.82;;;;;;;;;;5022445;28;20115;-79
2022/04/12 07:36:09;;;;;;;9.70;8.63;;;;;;;;;;5010169;28;20505;-78
2022/04/12 07:38:35;;;;;;;10.77;9.15;;;;;;;;;;5006314;28;20043;-80
2022/04/12 07:41:01;;;;;;;12.00;9.90;;;;;;;;;;5024085;28;20136;-79
2022/04/12 07:43:27;;;;;;;9.40;8.40;;;;;;;;;;4997583;28;20042;-78
2022/04/12 07:45:53;;;;;;;10.95;9.85;;;;;;;;;;5017764;28;20072;-79
2022/04/12 07:48:19;;;;;;;10.57;9.40;;;;;;;;;;5029794;28;20485;-79
2022/04/12 07:50:45;;;;;;;9.65;8.57;;;;;;;;;;5026938;28;20049;-79
2022/04/12 07:53:11;;;;;;;11.50;9.15;;;;;;;;;;5007019;28;20124;-78
2022/04/12 07:55:37;;;;;;;10.70;9.00;;;;;;;;;;5014149;28;20132;-79
2022/04/12 07:58:03;;;;;;;9.95;8.73;;;;;;;;;;5010967;28;20136;-79
2022/04/12 08:00:29;;;;;;;9.85;8.10;;;;;;;;;;5017827;28;20049;-78
2022/04/12 08:02:55;;;;;;;9.82;8.82;;;;;;;;;;5028250;28;20061;-78
2022/04/12 08:05:21;;;;;;;10.65;8.82;;;;;;;;;;5030877;28;20166;-79
2022/04/12 08:07:47;;;;;;;11.75;9.23;;;;;;;;;;5028528;28;20057;-78
2022/04/12 08:10:15;;;;;;;9.80;8.80;;;;;;;;;;5021371;28;20461;-78
2022/04/12 08:12:41;;;;;;;9.57;8.43;;;;;;;;;;5026932;28;20117;-79
2022/04/12 08:15:07;;;;;;;10.27;9.18;;;;;;;;;;5025377;28;20401;-78
2022/04/12 08:17:33;;;;;;;9.80;8.80;;;;;;;;;;5020578;28;20056;-78
2022/04/12 08:19:59;;;;;;;11.52;8.55;;;;;;;;;;5001971;28;20694;-79
2022/04/12 08:22:25;;;;;;;9.77;8.77;;;;;;;;;;5005042;28;20046;-78
2022/04/12 08:24:52;;;;;;;12.15;8.77;;;;;;;;;;5004725;28;20081;-79
2022/04/12 08:27:18;;;;;;;10.18;9.10;;;;;;;;;;5011789;28;20449;-79
2022/04/12 08:29:46;;;;;;;9.52;8.48;;;;;;;;;;5034583;28;20166;-79
2022/04/12 08:32:12;;;;;;;9.20;8.23;;;;;;;;;;5006100;28;20466;-79
2022/04/12 08:34:38;;;;;;;9.77;8.77;;;;;;;;;;5003098;28;20044;-78
2022/04/12 08:37:07;;;;;;;9.55;7.82;;;;;;;;;;5007491;28;20042;-79
2022/04/12 08:39:33;;;;;;;11.15;8.25;;;;;;;;;;5001436;28;20042;-78
2022/04/12 08:42:00;;;;;;;9.57;8.57;;;;;;;;;;4999705;28;20382;-79
2022/04/12 08:44:27;;;;;;;10.10;7.97;;;;;;;;;;5006983;28;20050;-79
2022/04/12 08:46:56;;;;;;;11.25;8.52;;;;;;;;;;5007565;28;20068;-79
2022/04/12 08:49:26;;;;;;;10.65;9.25;;;;;;;;;;5003595;28;20359;-79
2022/04/12 08:51:52;;;;;;;8.65;7.55;;;;;;;;;;5008309;28;20076;-79
2022/04/12 08:54:19;;;;;;;8.90;7.97;;;;;;;;;;5002888;28;20513;-79
2022/04/12 08:56:48;;;;;;;9.73;8.73;;;;;;;;;;5009310;28;20078;-79
2022/04/12 08:59:14;;;;;;;9.90;8.23;;;;;;;;;;5001448;28;20045;-78
2022/04/12 09:01:41;;;;;;;9.55;8.57;;;;;;;;;;4995283;28;20050;-78
2022/04/12 09:04:07;;;;;;;10.52;7.65;;;;;;;;;;5002199;28;20034;-79
2022/04/12 09:06:36;;;;;;;9.43;8.40;;;;;;;;;;5040577;28;20050;-78
2022/04/12 09:09:12;;;;;;;9.18;7.95;;;;;;;;;;5007367;28;20046;-79
2022/04/12 09:11:46;;;;;;;11.43;7.88;;;;;;;;;;5037023;28;20054;-79
2022/04/12 09:14:13;;;;;;;9.35;8.10;;;;;;;;;;5008044;28;20042;-79
2022/04/12 09:16:46;;;;;;;10.27;8.48;;;;;;;;;;4998786;28;20149;-79
2022/04/12 09:19:12;;;;;;;9.95;7.85;;;;;;;;;;5005142;28;20041;-79
2022/04/12 09:21:47;;;;;;;9.40;7.60;;;;;;;;;;5001844;28;20690;-79
2022/04/12 09:24:20;;;;;;;10.68;7.95;;;;;;;;;;5005334;28;20042;-80
2022/04/12 09:26:54;;;;;;;10.70;7.77;;;;;;;;;;5009084;28;20401;-80
2022/04/12 09:29:25;;;;;;;9.35;7.70;;;;;;;;;;5003310;28;20191;-79
2022/04/12 09:31:55;;;;;;;8.73;7.20;;;;;;;;;;5039954;28;20053;-78
2022/04/12 09:34:21;;;;;;;8.93;8.07;;;;;;;;;;5010078;28;20052;-77
2022/04/12 09:36:47;;;;;;;9.77;7.93;;;;;;;;;;5008502;28;20403;-78
2022/04/12 09:39:16;;;;;;;12.15;7.78;;;;;;;;;;5002119;28;20148;-77
2022/04/12 09:41:42;;;;;;;9.48;7.80;;;;;;;;;;4998682;28;20042;-78
2022/04/12 09:44:08;;;;;;;9.55;7.38;;;;;;;;;;5038934;28;20401;-78
2022/04/12 09:46:44;;;;;;;9.07;7.63;;;;;;;;;;5009010;28;20049;-78
2022/04/12 09:49:10;;;;;;;8.93;8.02;;;;;;;;;;5016839;28;20044;-77
2022/04/12 09:51:37;;;;;;;9.32;7.60;;;;;;;;;;5005103;28;20116;-78
2022/04/12 09:54:06;;;;;;;8.15;7.22;;;;;;;;;;5007248;28;20038;-78
2022/04/12 09:56:32;;;;;;;10.52;7.80;;;;;;;;;;5040336;28;20056;-79
2022/04/12 09:58:59;;;;;;;8.43;7.32;;;;;;;;;;5010204;28;20046;-77
2022/04/12 10:01:26;;;;;;;8.13;7.25;;;;;;;;;;5008337;28;20070;-77
2022/04/12 10:03:53;;;;;;;11.05;7.82;;;;;;;;;;5001192;28;20105;-78
2022/04/12 10:06:20;;;;;;;9.23;8.20;;;;;;;;;;5007011;28;20057;-78
2022/04/12 10:08:52;;;;;;;9.30;7.53;;;;;;;;;;5008897;28;20477;-78
2022/04/12 10:11:18;;;;;;;10.82;7.82;;;;;;;;;;5001446;28;20051;-78
2022/04/12 10:13:44;;;;;;;9.02;6.72;;;;;;;;;;5005574;28;20367;-78
2022/04/12 10:16:10;;;;;;;10.43;7.28;;;;;;;;;;5010230;28;20038;-77
2022/04/12 10:18:37;;;;;;;9.10;7.40;;;;;;;;;;5008853;28;20088;-78
2022/04/12 10:21:03;;;;;;;8.13;7.32;;;;;;;;;;5006122;28;20045;-78
2022/04/12 10:23:30;;;;;;;7.03;6.30;;;;;;;;;;5040783;28;20394;-78
2022/04/12 10:25:57;;;;;;;9.00;7.00;;;;;;;;;;5011431;28;20092;-78
2022/04/12 10:28:24;;;;;;;8.38;6.55;;;;;;;;;;5008480;28;20054;-76
2022/04/12 10:30:50;;;;;;;8.63;7.13;;;;;;;;;;5010973;28;20164;-78
2022/04/12 10:33:16;;;;;;;8.93;7.15;;;;;;;;;;5013305;28;20096;-79
2022/04/12 10:35:42;;;;;;;9.20;7.13;;;;;;;;;;5028118;28;20057;-78
2022/04/12 10:38:18;;;;;;;11.02;8.23;;;;;;;;;;4999070;28;20043;-78
2022/04/12 10:40:45;;;;;;;8.65;7.10;;;;;;;;;;5014382;28;20053;-80
2022/04/12 10:43:12;;;;;;;8.75;6.90;;;;;;;;;;5015342;28;20084;-79
2022/04/12 10:45:48;;;;;;;10.10;7.22;;;;;;;;;;5042117;28;20089;-80
2022/04/12 10:48:28;;;;;;;9.05;7.57;;;;;;;;;;5010279;28;20057;-79
2022/04/12 10:50:56;;;;;;;9.32;6.50;;;;;;;;;;5012047;28;20046;-80
2022/04/12 10:53:41;;;;;;;8.40;7.18;;;;;;;;;;5032173;28;20723;-79
2022/04/12 10:56:07;;;;;;;7.65;6.68;;;;;;;;;;5006938;28;20045;-79
2022/04/12 10:58:33;;;;;;;8.73;6.82;;;;;;;;;;5006010;28;20565;-80
2022/04/12 11:01:00;;;;;;;7.85;6.60;;;;;;;;;;5011491;28;20042;-80
2022/04/12 11:03:26;;;;;;;8.27;7.15;;;;;;;;;;5012904;28;20128;-79
2022/04/12 11:05:54;;;;;;;8.60;7.05;;;;;;;;;;5016454;28;20060;-80
2022/04/12 11:08:20;;;;;;;7.93;7.10;;;;;;;;;;5004553;28;20119;-78
2022/04/12 11:10:55;;;;;;;7.63;6.72;;;;;;;;;;5010375;28;20064;-79
2022/04/12 11:13:28;;;;;;;8.35;6.68;;;;;;;;;;5002590;28;22157;-79
2022/04/12 11:15:55;;;;;;;9.60;7.80;;;;;;;;;;5010276;28;20133;-79
2022/04/12 11:18:21;;;;;;;8.20;6.60;;;;;;;;;;5012976;28;20050;-78
2022/04/12 11:21:01;;;;;;;8.40;7.20;;;;;;;;;;5014553;28;20041;-79
2022/04/12 11:23:45;;;;;;;7.63;6.60;;;;;;;;;;5006931;28;20716;-79
2022/04/12 11:26:30;;;;;;;7.72;6.43;;;;;;;;;;5043467;28;20038;-79
2022/04/12 11:28:57;;;;;;;8.90;6.78;;;;;;;;;;5008356;28;20132;-79
2022/04/12 11:31:23;;;;;;;8.73;6.80;;;;;;;;;;5007672;28;20058;-80
2022/04/12 11:33:49;;;;;;;9.55;6.80;;;;;;;;;;5006308;28;20432;-79
2022/04/12 11:36:19;;;;;;;8.70;6.82;;;;;;;;;;5008366;28;20111;-79
2022/04/12 11:38:48;;;;;;;8.30;6.85;;;;;;;;;;5005756;28;20096;-79
2022/04/12 11:41:16;;;;;;;8.70;7.55;;;;;;;;;;5007993;28;20129;-79
2022/04/12 11:43:42;;;;;;;8.40;6.90;;;;;;;;;;5012994;28;20045;-78
2022/04/12 11:46:08;;;;;;;7.82;6.65;;;;;;;;;;5008937;28;20067;-79
2022/04/12 11:48:34;;;;;;;7.53;6.40;;;;;;;;;;5010262;28;20125;-79
2022/04/12 11:51:04;;;;;;;7.95;6.78;;;;;;;;;;4999371;28;20038;-79
2022/04/12 11:53:31;;;;;;;8.40;6.55;;;;;;;;;;4992452;28;20069;-79
2022/04/12 11:56:04;;;;;;;8.52;7.13;;;;;;;;;;5001007;28;20480;-78
2022/04/12 11:58:31;;;;;;;9.00;6.72;;;;;;;;;;5004219;28;20053;-79
2022/04/12 12:00:57;;;;;;;8.20;6.80;;;;;;;;;;5004884;28;20042;-79
2022/04/12 12:03:24;;;;;;;8.18;6.97;;;;;;;;;;5006794;28;20132;-79
2022/04/12 12:05:50;;;;;;;8.65;6.88;;;;;;;;;;5002652;28;20072;-79
2022/04/12 12:08:20;;;;;;;8.50;6.68;;;;;;;;;;5002678;28;20493;-79
2022/04/12 12:10:46;;;;;;;7.38;6.30;;;;;;;;;;5009528;28;20129;-79
2022/04/12 12:13:13;;;;;;;7.97;6.95;;;;;;;;;;5007317;28;20101;-80
2022/04/12 12:15:40;;;;;;;8.57;7.28;;;;;;;;;;5010010;28;20544;-79
2022/04/12 12:18:07;;;;;;;8.88;6.85;;;;;;;;;;5003268;28;20398;-79
2022/04/12 12:20:40;;;;;;;8.65;7.45;;;;;;;;;;5010001;28;20506;-79
2022/04/12 12:23:07;;;;;;;7.50;6.70;;;;;;;;;;5004883;28;20421;-79
2022/04/12 12:25:36;;;;;;;9.43;7.75;;;;;;;;;;5006255;28;20120;-79
2022/04/12 12:28:02;;;;;;;9.30;7.47;;;;;;;;;;5010263;28;20053;-79
2022/04/12 12:30:29;;;;;;;7.53;6.43;;;;;;;;;;5006874;28;20572;-79
2022/04/12 12:32:56;;;;;;;8.57;6.97;;;;;;;;;;5001816;28;20081;-79
2022/04/12 12:35:30;;;;;;;7.03;6.05;;;;;;;;;;4990149;28;20052;-79
2022/04/12 12:38:09;;;;;;;8.30;6.38;;;;;;;;;;5007540;28;20540;-79
2022/04/12 12:40:36;;;;;;;8.48;6.30;;;;;;;;;;5007371;28;20125;-80
2022/04/12 12:43:04;;;;;;;9.48;6.40;;;;;;;;;;5008577;28;20049;-79
2022/04/12 12:45:30;;;;;;;7.57;6.70;;;;;;;;;;5035676;28;20613;-79
2022/04/12 12:47:57;;;;;;;7.72;6.47;;;;;;;;;;5009961;28;20042;-79
2022/04/12 12:50:24;;;;;;;9.35;6.47;;;;;;;;;;5007394;28;20046;-79
2022/04/12 12:52:58;;;;;;;7.75;6.88;;;;;;;;;;5005883;28;20524;-80
2022/04/12 12:55:24;;;;;;;8.02;6.82;;;;;;;;;;5009298;28;20046;-79
2022/04/12 12:57:51;;;;;;;8.02;6.63;;;;;;;;;;5005103;28;20042;-79
2022/04/12 13:00:18;;;;;;;8.35;6.45;;;;;;;;;;5008168;28;20096;-79
2022/04/12 13:02:44;;;;;;;7.60;6.80;;;;;;;;;;5005958;28;20509;-79
2022/04/12 13:05:11;;;;;;;7.40;6.30;;;;;;;;;;5007152;28;20057;-79
2022/04/12 13:07:38;;;;;;;8.32;6.88;;;;;;;;;;5009189;28;20046;-79
2022/04/12 13:10:10;;;;;;;8.48;6.90;;;;;;;;;;5009328;28;20041;-79
2022/04/12 13:12:36;;;;;;;8.05;6.70;;;;;;;;;;5032572;28;20111;-80
2022/04/12 13:15:04;;;;;;;8.90;6.88;;;;;;;;;;5041637;28;20121;-79
2022/04/12 13:17:31;;;;;;;7.57;6.82;;;;;;;;;;5037313;28;20057;-79
2022/04/12 13:19:57;;;;;;;7.82;7.03;;;;;;;;;;5008711;28;20176;-79
2022/04/12 13:22:24;;;;;;;7.47;6.60;;;;;;;;;;5039982;28;20085;-79
2022/04/12 13:24:50;;;;;;;7.70;6.70;;;;;;;;;;5009488;28;20046;-80
2022/04/12 13:27:16;;;;;;;8.65;6.88;;;;;;;;;;5005126;28;20103;-79
2022/04/12 13:29:42;;;;;;;8.68;7.35;;;;;;;;;;5040115;28;20137;-79
2022/04/12 13:32:08;;;;;;;7.72;6.97;;;;;;;;;;5005715;28;20513;-80
2022/04/12 13:34:34;;;;;;;8.32;6.82;;;;;;;;;;5006220;28;20398;-80
2022/04/12 13:37:00;;;;;;;9.73;7.05;;;;;;;;;;5006788;28;20061;-79
2022/04/12 13:39:29;;;;;;;9.32;7.22;;;;;;;;;;5003868;28;20042;-79
2022/04/12 13:41:55;;;;;;;10.40;7.13;;;;;;;;;;5005733;28;20130;-79
2022/04/12 13:44:21;;;;;;;7.43;6.13;;;;;;;;;;5006954;28;20046;-79
2022/04/12 13:46:47;;;;;;;8.68;7.30;;;;;;;;;;5009090;28;20046;-79
2022/04/12 13:49:13;;;;;;;8.75;7.85;;;;;;;;;;5009308;28;20497;-79
2022/04/12 13:51:39;;;;;;;8.90;6.50;;;;;;;;;;5009949;28;20053;-79
2022/04/12 13:54:05;;;;;;;8.00;7.20;;;;;;;;;;5013055;28;20042;-79
2022/04/12 13:56:32;;;;;;;9.00;6.95;;;;;;;;;;5005172;28;20474;-79
2022/04/12 13:58:58;;;;;;;8.93;7.15;;;;;;;;;;5010801;28;20053;-79
2022/04/12 14:01:24;;;;;;;8.02;6.80;;;;;;;;;;5009233;28;20487;-79
2022/04/12 14:03:50;;;;;;;8.00;6.68;;;;;;;;;;5006435;28;20125;-79
2022/04/12 14:06:16;;;;;;;9.55;7.18;;;;;;;;;;5010295;28;20042;-79
2022/04/12 14:08:42;;;;;;;7.55;6.50;;;;;;;;;;5006043;28;20038;-79
2022/04/12 14:11:09;;;;;;;8.27;7.00;;;;;;;;;;5011932;28;20042;-79
2022/04/12 14:13:41;;;;;;;8.57;7.30;;;;;;;;;;5010422;28;20049;-79
2022/04/12 14:16:07;;;;;;;8.98;7.38;;;;;;;;;;5008850;28;20124;-79
2022/04/12 14:18:33;;;;;;;9.93;6.45;;;;;;;;;;5009881;28;20048;-79
2022/04/12 14:20:59;;;;;;;8.73;7.25;;;;;;;;;;5012720;28;20077;-80
2022/04/12 14:23:25;;;;;;;9.32;6.97;;;;;;;;;;5009225;28;20103;-79
2022/04/12 14:25:51;;;;;;;11.35;7.50;;;;;;;;;;5005051;28;20425;-79
2022/04/12 14:28:20;;;;;;;8.80;7.47;;;;;;;;;;5010233;28;20537;-79
2022/04/12 14:30:46;;;;;;;8.90;7.47;;;;;;;;;;5007109;28;20069;-79
2022/04/12 14:33:12;;;;;;;8.15;7.35;;;;;;;;;;5011226;28;20042;-79
2022/04/12 14:35:40;;;;;;;9.38;8.13;;;;;;;;;;5009347;28;20099;-79